sensor_id;sensor_type;location;lat;lon;timestamp;temperature;humidity
46784;DHT22;32544;52.832;13.816;2023-04-16T00:00:58;23.60;47.10
46784;DHT22;32544;52.832;13.816;2023-04-16T00:01:58;23.60;47.20
46784;DHT22;32544;52.832;13.816;2023-04-16T00:02:59;23.60;47.10
46784;DHT22;32544;52.832;13.816;2023-04-16T00:04:00;23.60;47.20
46784;DHT22;32544;52.832;13.816;2023-04-16T00:05:00;23.60;47.30
46784;DHT22;32544;52.832;13.816;2023-04-16T00:06:01;23.60;47.20
46784;DHT22;32544;52.832;13.816;2023-04-16T00:07:02;23.60;47.20
46784;DHT22;32544;52.832;13.816;2023-04-16T00:08:02;23.60;47.30
46784;DHT22;32544;52.832;13.816;2023-04-16T00:09:03;23.60;47.30
46784;DHT22;32544;52.832;13.816;2023-04-16T00:10:04;23.60;47.30
46784;DHT22;32544;52.832;13.816;2023-04-16T00:11:05;23.60;47.30
46784;DHT22;32544;52.832;13.816;2023-04-16T00:12:06;23.60;47.30
46784;DHT22;32544;52.832;13.816;2023-04-16T00:13:06;23.60;47.30
46784;DHT22;32544;52.832;13.816;2023-04-16T00:14:07;23.60;47.30
46784;DHT22;32544;52.832;13.816;2023-04-16T00:15:08;23.60;47.40
46784;DHT22;32544;52.832;13.816;2023-04-16T00:16:08;23.60;47.30
46784;DHT22;32544;52.832;13.816;2023-04-16T00:17:09;23.60;47.30
46784;DHT22;32544;52.832;13.816;2023-04-16T00:18:09;23.60;47.30
46784;DHT22;32544;52.832;13.816;2023-04-16T00:19:10;23.60;47.40
46784;DHT22;32544;52.832;13.816;2023-04-16T00:20:11;23.60;47.40
46784;DHT22;32544;52.832;13.816;2023-04-16T00:21:11;23.60;47.30
46784;DHT22;32544;52.832;13.816;2023-04-16T00:22:12;23.60;47.40
46784;DHT22;32544;52.832;13.816;2023-04-16T00:23:13;23.60;47.40
46784;DHT22;32544;52.832;13.816;2023-04-16T00:24:13;23.60;47.40
46784;DHT22;32544;52.832;13.816;2023-04-16T00:25:14;23.60;47.40
46784;DHT22;32544;52.832;13.816;2023-04-16T00:26:14;23.60;47.40
46784;DHT22;32544;52.832;13.816;2023-04-16T00:27:18;23.60;47.50
46784;DHT22;32544;52.832;13.816;2023-04-16T00:28:19;23.60;47.50
46784;DHT22;32544;52.832;13.816;2023-04-16T00:29:20;23.50;47.40
46784;DHT22;32544;52.832;13.816;2023-04-16T00:30:21;23.50;47.40
46784;DHT22;32544;52.832;13.816;2023-04-16T00:31:28;23.50;47.40
46784;DHT22;32544;52.832;13.816;2023-04-16T00:32:29;23.60;47.40
46784;DHT22;32544;52.832;13.816;2023-04-16T00:33:30;23.60;47.40
46784;DHT22;32544;52.832;13.816;2023-04-16T00:34:31;23.60;47.40
46784;DHT22;32544;52.832;13.816;2023-04-16T00:35:31;23.50;47.40
46784;DHT22;32544;52.832;13.816;2023-04-16T00:36:32;23.60;47.50
46784;DHT22;32544;52.832;13.816;2023-04-16T00:37:33;23.60;47.40
46784;DHT22;32544;52.832;13.816;2023-04-16T00:38:33;23.50;47.40
46784;DHT22;32544;52.832;13.816;2023-04-16T00:39:34;23.50;47.40
46784;DHT22;32544;52.832;13.816;2023-04-16T00:40:35;23.50;47.50
46784;DHT22;32544;52.832;13.816;2023-04-16T00:41:36;23.50;47.40
46784;DHT22;32544;52.832;13.816;2023-04-16T00:42:37;23.50;47.50
46784;DHT22;32544;52.832;13.816;2023-04-16T00:43:37;23.50;47.50
46784;DHT22;32544;52.832;13.816;2023-04-16T00:44:38;23.50;47.50
46784;DHT22;32544;52.832;13.816;2023-04-16T00:45:38;23.50;47.50
46784;DHT22;32544;52.832;13.816;2023-04-16T00:46:39;23.50;47.50
46784;DHT22;32544;52.832;13.816;2023-04-16T00:47:41;23.50;47.50
46784;DHT22;32544;52.832;13.816;2023-04-16T00:48:42;23.50;47.50
46784;DHT22;32544;52.832;13.816;2023-04-16T00:49:43;23.50;47.50
46784;DHT22;32544;52.832;13.816;2023-04-16T00:50:43;23.50;47.50
46784;DHT22;32544;52.832;13.816;2023-04-16T00:51:44;23.50;47.50
46784;DHT22;32544;52.832;13.816;2023-04-16T00:52:46;23.50;47.50
46784;DHT22;32544;52.832;13.816;2023-04-16T00:53:46;23.50;47.50
46784;DHT22;32544;52.832;13.816;2023-04-16T00:54:47;23.50;47.50
46784;DHT22;32544;52.832;13.816;2023-04-16T00:55:48;23.50;47.60
46784;DHT22;32544;52.832;13.816;2023-04-16T00:56:48;23.50;47.60
46784;DHT22;32544;52.832;13.816;2023-04-16T00:57:50;23.50;47.60
46784;DHT22;32544;52.832;13.816;2023-04-16T00:58:50;23.50;47.60
46784;DHT22;32544;52.832;13.816;2023-04-16T00:59:51;23.50;47.50
46784;DHT22;32544;52.832;13.816;2023-04-16T01:00:52;23.50;47.70
46784;DHT22;32544;52.832;13.816;2023-04-16T01:01:52;23.50;47.70
46784;DHT22;32544;52.832;13.816;2023-04-16T01:02:53;23.50;47.80
46784;DHT22;32544;52.832;13.816;2023-04-16T01:03:54;23.50;47.80
46784;DHT22;32544;52.832;13.816;2023-04-16T01:04:55;23.50;47.70
46784;DHT22;32544;52.832;13.816;2023-04-16T01:05:55;23.50;47.80
46784;DHT22;32544;52.832;13.816;2023-04-16T01:06:56;23.50;47.80
46784;DHT22;32544;52.832;13.816;2023-04-16T01:07:57;23.50;47.80
46784;DHT22;32544;52.832;13.816;2023-04-16T01:08:58;23.40;47.70
46784;DHT22;32544;52.832;13.816;2023-04-16T01:09:58;23.50;47.80
46784;DHT22;32544;52.832;13.816;2023-04-16T01:10:59;23.50;47.80
46784;DHT22;32544;52.832;13.816;2023-04-16T01:12:00;23.50;47.80
46784;DHT22;32544;52.832;13.816;2023-04-16T01:13:01;23.40;47.70
46784;DHT22;32544;52.832;13.816;2023-04-16T01:14:02;23.50;47.80
46784;DHT22;32544;52.832;13.816;2023-04-16T01:15:02;23.40;47.70
46784;DHT22;32544;52.832;13.816;2023-04-16T01:16:04;23.50;47.80
46784;DHT22;32544;52.832;13.816;2023-04-16T01:17:05;23.40;47.70
46784;DHT22;32544;52.832;13.816;2023-04-16T01:18:14;23.40;47.80
46784;DHT22;32544;52.832;13.816;2023-04-16T01:19:15;23.50;47.80
46784;DHT22;32544;52.832;13.816;2023-04-16T01:20:16;23.50;47.80
46784;DHT22;32544;52.832;13.816;2023-04-16T01:21:16;23.50;47.80
46784;DHT22;32544;52.832;13.816;2023-04-16T01:22:17;23.50;47.80
46784;DHT22;32544;52.832;13.816;2023-04-16T01:23:18;23.50;47.80
46784;DHT22;32544;52.832;13.816;2023-04-16T01:24:18;23.50;47.80
46784;DHT22;32544;52.832;13.816;2023-04-16T01:25:19;23.50;47.80
46784;DHT22;32544;52.832;13.816;2023-04-16T01:26:20;23.50;47.70
46784;DHT22;32544;52.832;13.816;2023-04-16T01:27:22;23.50;47.80
46784;DHT22;32544;52.832;13.816;2023-04-16T01:28:22;23.50;47.80
46784;DHT22;32544;52.832;13.816;2023-04-16T01:29:23;23.50;47.70
46784;DHT22;32544;52.832;13.816;2023-04-16T01:30:24;23.50;47.70
46784;DHT22;32544;52.832;13.816;2023-04-16T01:31:36;23.50;48.10
46784;DHT22;32544;52.832;13.816;2023-04-16T01:32:53;23.50;47.70
46784;DHT22;32544;52.832;13.816;2023-04-16T01:33:54;23.50;47.70
46784;DHT22;32544;52.832;13.816;2023-04-16T01:34:55;23.50;47.70
46784;DHT22;32544;52.832;13.816;2023-04-16T01:35:56;23.50;47.70
46784;DHT22;32544;52.832;13.816;2023-04-16T01:36:57;23.50;47.80
46784;DHT22;32544;52.832;13.816;2023-04-16T01:37:57;23.50;47.70
46784;DHT22;32544;52.832;13.816;2023-04-16T01:38:58;23.50;47.80
46784;DHT22;32544;52.832;13.816;2023-04-16T01:39:59;23.50;47.70
46784;DHT22;32544;52.832;13.816;2023-04-16T01:40:59;23.50;47.80
46784;DHT22;32544;52.832;13.816;2023-04-16T01:42:01;23.50;47.80
46784;DHT22;32544;52.832;13.816;2023-04-16T01:43:01;23.50;47.70
46784;DHT22;32544;52.832;13.816;2023-04-16T01:44:02;23.50;47.70
46784;DHT22;32544;52.832;13.816;2023-04-16T01:45:03;23.50;47.80
46784;DHT22;32544;52.832;13.816;2023-04-16T01:46:14;23.50;47.80
46784;DHT22;32544;52.832;13.816;2023-04-16T01:47:17;23.50;47.80
46784;DHT22;32544;52.832;13.816;2023-04-16T01:48:18;23.50;47.80
46784;DHT22;32544;52.832;13.816;2023-04-16T01:49:18;23.50;47.80
46784;DHT22;32544;52.832;13.816;2023-04-16T01:50:19;23.50;47.80
46784;DHT22;32544;52.832;13.816;2023-04-16T01:51:20;23.50;47.80
46784;DHT22;32544;52.832;13.816;2023-04-16T01:52:21;23.50;47.80
46784;DHT22;32544;52.832;13.816;2023-04-16T01:53:21;23.50;47.80
46784;DHT22;32544;52.832;13.816;2023-04-16T01:54:23;23.50;47.80
46784;DHT22;32544;52.832;13.816;2023-04-16T01:55:24;23.50;47.80
46784;DHT22;32544;52.832;13.816;2023-04-16T01:56:26;23.50;47.80
46784;DHT22;32544;52.832;13.816;2023-04-16T01:57:27;23.50;47.80
46784;DHT22;32544;52.832;13.816;2023-04-16T01:58:28;23.50;47.80
46784;DHT22;32544;52.832;13.816;2023-04-16T01:59:29;23.50;47.80
46784;DHT22;32544;52.832;13.816;2023-04-16T02:00:30;23.50;47.80
46784;DHT22;32544;52.832;13.816;2023-04-16T02:01:30;23.50;47.80
46784;DHT22;32544;52.832;13.816;2023-04-16T02:02:31;23.50;47.80
46784;DHT22;32544;52.832;13.816;2023-04-16T02:03:33;23.50;47.90
46784;DHT22;32544;52.832;13.816;2023-04-16T02:04:33;23.50;47.80
46784;DHT22;32544;52.832;13.816;2023-04-16T02:05:34;23.50;47.80
46784;DHT22;32544;52.832;13.816;2023-04-16T02:06:35;23.50;47.90
46784;DHT22;32544;52.832;13.816;2023-04-16T02:07:35;23.50;47.80
46784;DHT22;32544;52.832;13.816;2023-04-16T02:08:36;23.50;47.90
46784;DHT22;32544;52.832;13.816;2023-04-16T02:09:37;23.50;48.00
46784;DHT22;32544;52.832;13.816;2023-04-16T02:10:40;23.50;47.90
46784;DHT22;32544;52.832;13.816;2023-04-16T02:11:41;23.50;47.90
46784;DHT22;32544;52.832;13.816;2023-04-16T02:12:42;23.50;48.00
46784;DHT22;32544;52.832;13.816;2023-04-16T02:13:43;23.40;47.90
46784;DHT22;32544;52.832;13.816;2023-04-16T02:14:43;23.50;47.90
46784;DHT22;32544;52.832;13.816;2023-04-16T02:15:46;23.50;47.90
46784;DHT22;32544;52.832;13.816;2023-04-16T02:16:48;23.40;47.90
46784;DHT22;32544;52.832;13.816;2023-04-16T02:18:07;23.50;47.90
46784;DHT22;32544;52.832;13.816;2023-04-16T02:19:09;23.50;48.00
46784;DHT22;32544;52.832;13.816;2023-04-16T02:20:11;23.40;47.90
46784;DHT22;32544;52.832;13.816;2023-04-16T02:21:18;23.50;48.00
46784;DHT22;32544;52.832;13.816;2023-04-16T02:22:20;23.50;48.00
46784;DHT22;32544;52.832;13.816;2023-04-16T02:23:21;23.50;48.00
46784;DHT22;32544;52.832;13.816;2023-04-16T02:24:21;23.50;48.00
46784;DHT22;32544;52.832;13.816;2023-04-16T02:25:22;23.40;47.90
46784;DHT22;32544;52.832;13.816;2023-04-16T02:26:25;23.50;48.00
46784;DHT22;32544;52.832;13.816;2023-04-16T02:27:27;23.50;47.90
46784;DHT22;32544;52.832;13.816;2023-04-16T02:28:33;23.50;47.90
46784;DHT22;32544;52.832;13.816;2023-04-16T02:29:34;23.50;47.90
46784;DHT22;32544;52.832;13.816;2023-04-16T02:30:42;23.50;47.90
46784;DHT22;32544;52.832;13.816;2023-04-16T02:31:43;23.50;47.90
46784;DHT22;32544;52.832;13.816;2023-04-16T02:32:44;23.50;47.90
46784;DHT22;32544;52.832;13.816;2023-04-16T02:33:46;23.50;47.90
46784;DHT22;32544;52.832;13.816;2023-04-16T02:34:47;23.50;47.80
46784;DHT22;32544;52.832;13.816;2023-04-16T02:35:48;23.50;47.80
46784;DHT22;32544;52.832;13.816;2023-04-16T02:36:49;23.50;47.80
46784;DHT22;32544;52.832;13.816;2023-04-16T02:37:50;23.50;47.80
46784;DHT22;32544;52.832;13.816;2023-04-16T02:38:50;23.50;47.80
46784;DHT22;32544;52.832;13.816;2023-04-16T02:39:51;23.50;47.80
46784;DHT22;32544;52.832;13.816;2023-04-16T02:40:53;23.50;47.80
46784;DHT22;32544;52.832;13.816;2023-04-16T02:41:54;23.50;47.80
46784;DHT22;32544;52.832;13.816;2023-04-16T02:42:55;23.50;47.80
46784;DHT22;32544;52.832;13.816;2023-04-16T02:43:56;23.50;47.80
46784;DHT22;32544;52.832;13.816;2023-04-16T02:44:56;23.50;47.80
46784;DHT22;32544;52.832;13.816;2023-04-16T02:45:57;23.50;47.80
46784;DHT22;32544;52.832;13.816;2023-04-16T02:46:58;23.50;47.80
46784;DHT22;32544;52.832;13.816;2023-04-16T02:47:59;23.50;47.80
46784;DHT22;32544;52.832;13.816;2023-04-16T02:49:00;23.50;47.80
46784;DHT22;32544;52.832;13.816;2023-04-16T02:50:00;23.50;47.80
46784;DHT22;32544;52.832;13.816;2023-04-16T02:51:01;23.50;47.80
46784;DHT22;32544;52.832;13.816;2023-04-16T02:52:01;23.50;47.80
46784;DHT22;32544;52.832;13.816;2023-04-16T02:53:02;23.50;47.80
46784;DHT22;32544;52.832;13.816;2023-04-16T02:54:03;23.50;47.80
46784;DHT22;32544;52.832;13.816;2023-04-16T02:55:05;23.50;47.80
46784;DHT22;32544;52.832;13.816;2023-04-16T02:56:06;23.50;47.80
46784;DHT22;32544;52.832;13.816;2023-04-16T02:57:06;23.60;47.80
46784;DHT22;32544;52.832;13.816;2023-04-16T02:58:08;23.60;47.80
46784;DHT22;32544;52.832;13.816;2023-04-16T02:59:08;23.60;47.80
46784;DHT22;32544;52.832;13.816;2023-04-16T03:00:09;23.60;47.80
46784;DHT22;32544;52.832;13.816;2023-04-16T03:01:10;23.60;47.80
46784;DHT22;32544;52.832;13.816;2023-04-16T03:02:10;23.60;47.80
46784;DHT22;32544;52.832;13.816;2023-04-16T03:03:11;23.60;47.80
46784;DHT22;32544;52.832;13.816;2023-04-16T03:04:12;23.60;47.80
46784;DHT22;32544;52.832;13.816;2023-04-16T03:05:13;23.60;47.80
46784;DHT22;32544;52.832;13.816;2023-04-16T03:06:13;23.60;47.70
46784;DHT22;32544;52.832;13.816;2023-04-16T03:07:14;23.60;47.70
46784;DHT22;32544;52.832;13.816;2023-04-16T03:08:15;23.60;47.70
46784;DHT22;32544;52.832;13.816;2023-04-16T03:09:15;23.60;47.70
46784;DHT22;32544;52.832;13.816;2023-04-16T03:10:16;23.60;47.80
46784;DHT22;32544;52.832;13.816;2023-04-16T03:11:17;23.60;47.70
46784;DHT22;32544;52.832;13.816;2023-04-16T03:12:19;23.60;47.80
46784;DHT22;32544;52.832;13.816;2023-04-16T03:13:20;23.60;47.80
46784;DHT22;32544;52.832;13.816;2023-04-16T03:14:20;23.60;47.80
46784;DHT22;32544;52.832;13.816;2023-04-16T03:15:21;23.60;47.70
46784;DHT22;32544;52.832;13.816;2023-04-16T03:16:21;23.60;47.70
46784;DHT22;32544;52.832;13.816;2023-04-16T03:17:22;23.60;47.70
46784;DHT22;32544;52.832;13.816;2023-04-16T03:18:23;23.60;47.80
46784;DHT22;32544;52.832;13.816;2023-04-16T03:19:24;23.60;47.80
46784;DHT22;32544;52.832;13.816;2023-04-16T03:20:26;23.60;47.80
46784;DHT22;32544;52.832;13.816;2023-04-16T03:21:27;23.50;47.80
46784;DHT22;32544;52.832;13.816;2023-04-16T03:22:27;23.50;47.70
46784;DHT22;32544;52.832;13.816;2023-04-16T03:23:28;23.60;47.80
46784;DHT22;32544;52.832;13.816;2023-04-16T03:24:29;23.60;47.80
46784;DHT22;32544;52.832;13.816;2023-04-16T03:25:29;23.50;47.70
46784;DHT22;32544;52.832;13.816;2023-04-16T03:26:30;23.60;47.80
46784;DHT22;32544;52.832;13.816;2023-04-16T03:27:31;23.60;47.70
46784;DHT22;32544;52.832;13.816;2023-04-16T03:28:32;23.60;47.70
46784;DHT22;32544;52.832;13.816;2023-04-16T03:29:35;23.60;47.80
46784;DHT22;32544;52.832;13.816;2023-04-16T03:30:35;23.60;47.80
46784;DHT22;32544;52.832;13.816;2023-04-16T03:31:36;23.60;47.80
46784;DHT22;32544;52.832;13.816;2023-04-16T03:32:37;23.50;47.70
46784;DHT22;32544;52.832;13.816;2023-04-16T03:33:38;23.60;47.70
46784;DHT22;32544;52.832;13.816;2023-04-16T03:34:39;23.60;47.80
46784;DHT22;32544;52.832;13.816;2023-04-16T03:35:40;23.60;47.80
46784;DHT22;32544;52.832;13.816;2023-04-16T03:36:41;23.60;47.80
46784;DHT22;32544;52.832;13.816;2023-04-16T03:37:41;23.60;47.90
46784;DHT22;32544;52.832;13.816;2023-04-16T03:38:42;23.50;47.80
46784;DHT22;32544;52.832;13.816;2023-04-16T03:39:43;23.50;47.80
46784;DHT22;32544;52.832;13.816;2023-04-16T03:40:46;23.50;47.80
46784;DHT22;32544;52.832;13.816;2023-04-16T03:41:48;23.60;47.80
46784;DHT22;32544;52.832;13.816;2023-04-16T03:42:49;23.50;47.80
46784;DHT22;32544;52.832;13.816;2023-04-16T03:43:50;23.50;47.80
46784;DHT22;32544;52.832;13.816;2023-04-16T03:44:50;23.50;47.80
46784;DHT22;32544;52.832;13.816;2023-04-16T03:45:53;23.50;47.80
46784;DHT22;32544;52.832;13.816;2023-04-16T03:46:56;23.50;47.80
46784;DHT22;32544;52.832;13.816;2023-04-16T03:47:57;23.50;47.80
46784;DHT22;32544;52.832;13.816;2023-04-16T03:48:59;23.50;47.80
46784;DHT22;32544;52.832;13.816;2023-04-16T03:50:02;23.50;47.90
46784;DHT22;32544;52.832;13.816;2023-04-16T03:51:02;23.50;47.90
46784;DHT22;32544;52.832;13.816;2023-04-16T03:52:03;23.50;47.90
46784;DHT22;32544;52.832;13.816;2023-04-16T03:53:04;23.50;47.90
46784;DHT22;32544;52.832;13.816;2023-04-16T03:54:05;23.50;47.90
46784;DHT22;32544;52.832;13.816;2023-04-16T03:55:06;23.50;47.90
46784;DHT22;32544;52.832;13.816;2023-04-16T03:56:07;23.50;48.00
46784;DHT22;32544;52.832;13.816;2023-04-16T03:57:08;23.50;48.00
46784;DHT22;32544;52.832;13.816;2023-04-16T03:58:08;23.50;48.00
46784;DHT22;32544;52.832;13.816;2023-04-16T03:59:09;23.50;48.00
46784;DHT22;32544;52.832;13.816;2023-04-16T04:00:10;23.50;48.00
46784;DHT22;32544;52.832;13.816;2023-04-16T04:01:29;23.50;48.00
46784;DHT22;32544;52.832;13.816;2023-04-16T04:02:30;23.50;48.00
46784;DHT22;32544;52.832;13.816;2023-04-16T04:03:30;23.50;48.00
46784;DHT22;32544;52.832;13.816;2023-04-16T04:04:31;23.50;48.10
46784;DHT22;32544;52.832;13.816;2023-04-16T04:05:35;23.50;48.10
46784;DHT22;32544;52.832;13.816;2023-04-16T04:06:37;23.50;48.10
46784;DHT22;32544;52.832;13.816;2023-04-16T04:07:38;23.50;48.10
46784;DHT22;32544;52.832;13.816;2023-04-16T04:08:39;23.50;48.10
46784;DHT22;32544;52.832;13.816;2023-04-16T04:09:40;23.50;48.10
46784;DHT22;32544;52.832;13.816;2023-04-16T04:10:42;23.50;48.10
46784;DHT22;32544;52.832;13.816;2023-04-16T04:11:44;23.50;48.10
46784;DHT22;32544;52.832;13.816;2023-04-16T04:12:45;23.50;48.10
46784;DHT22;32544;52.832;13.816;2023-04-16T04:13:46;23.40;48.10
46784;DHT22;32544;52.832;13.816;2023-04-16T04:14:47;23.50;48.10
46784;DHT22;32544;52.832;13.816;2023-04-16T04:15:47;23.40;48.10
46784;DHT22;32544;52.832;13.816;2023-04-16T04:16:48;23.50;48.10
46784;DHT22;32544;52.832;13.816;2023-04-16T04:17:49;23.40;48.10
46784;DHT22;32544;52.832;13.816;2023-04-16T04:18:49;23.50;48.10
46784;DHT22;32544;52.832;13.816;2023-04-16T04:19:50;23.40;48.10
46784;DHT22;32544;52.832;13.816;2023-04-16T04:20:53;23.40;48.10
46784;DHT22;32544;52.832;13.816;2023-04-16T04:21:57;23.50;48.10
46784;DHT22;32544;52.832;13.816;2023-04-16T04:22:58;23.50;48.20
46784;DHT22;32544;52.832;13.816;2023-04-16T04:23:59;23.40;48.10
46784;DHT22;32544;52.832;13.816;2023-04-16T04:25:02;23.40;48.10
46784;DHT22;32544;52.832;13.816;2023-04-16T04:26:05;23.50;48.20
46784;DHT22;32544;52.832;13.816;2023-04-16T04:27:07;23.50;48.10
46784;DHT22;32544;52.832;13.816;2023-04-16T04:28:07;23.40;48.10
46784;DHT22;32544;52.832;13.816;2023-04-16T04:29:08;23.40;48.10
46784;DHT22;32544;52.832;13.816;2023-04-16T04:30:09;23.40;48.10
46784;DHT22;32544;52.832;13.816;2023-04-16T04:31:10;23.50;48.10
46784;DHT22;32544;52.832;13.816;2023-04-16T04:32:10;23.40;48.10
46784;DHT22;32544;52.832;13.816;2023-04-16T04:33:11;23.40;48.00
46784;DHT22;32544;52.832;13.816;2023-04-16T04:34:12;23.40;48.10
46784;DHT22;32544;52.832;13.816;2023-04-16T04:35:13;23.40;48.10
46784;DHT22;32544;52.832;13.816;2023-04-16T04:36:14;23.50;48.20
46784;DHT22;32544;52.832;13.816;2023-04-16T04:37:15;23.40;48.10
46784;DHT22;32544;52.832;13.816;2023-04-16T04:38:17;23.50;48.20
46784;DHT22;32544;52.832;13.816;2023-04-16T04:39:20;23.40;48.10
46784;DHT22;32544;52.832;13.816;2023-04-16T04:40:22;23.40;48.10
46784;DHT22;32544;52.832;13.816;2023-04-16T04:41:23;23.40;48.10
46784;DHT22;32544;52.832;13.816;2023-04-16T04:42:23;23.40;48.10
46784;DHT22;32544;52.832;13.816;2023-04-16T04:43:24;23.40;48.10
46784;DHT22;32544;52.832;13.816;2023-04-16T04:44:25;23.40;48.10
46784;DHT22;32544;52.832;13.816;2023-04-16T04:45:26;23.40;48.10
46784;DHT22;32544;52.832;13.816;2023-04-16T04:46:27;23.40;48.10
46784;DHT22;32544;52.832;13.816;2023-04-16T04:47:28;23.40;48.10
46784;DHT22;32544;52.832;13.816;2023-04-16T04:48:29;23.40;48.10
46784;DHT22;32544;52.832;13.816;2023-04-16T04:49:30;23.40;48.10
46784;DHT22;32544;52.832;13.816;2023-04-16T04:50:31;23.40;48.20
46784;DHT22;32544;52.832;13.816;2023-04-16T04:51:31;23.40;48.10
46784;DHT22;32544;52.832;13.816;2023-04-16T04:52:32;23.50;48.10
46784;DHT22;32544;52.832;13.816;2023-04-16T04:53:35;23.40;48.10
46784;DHT22;32544;52.832;13.816;2023-04-16T04:54:35;23.50;48.10
46784;DHT22;32544;52.832;13.816;2023-04-16T04:55:36;23.50;48.10
46784;DHT22;32544;52.832;13.816;2023-04-16T04:56:37;23.40;48.00
46784;DHT22;32544;52.832;13.816;2023-04-16T04:57:38;23.40;48.10
46784;DHT22;32544;52.832;13.816;2023-04-16T04:58:39;23.40;48.00
46784;DHT22;32544;52.832;13.816;2023-04-16T04:59:41;23.40;48.00
46784;DHT22;32544;52.832;13.816;2023-04-16T05:00:41;23.40;48.10
46784;DHT22;32544;52.832;13.816;2023-04-16T05:01:42;23.40;48.10
46784;DHT22;32544;52.832;13.816;2023-04-16T05:02:43;23.40;48.10
46784;DHT22;32544;52.832;13.816;2023-04-16T05:03:43;23.40;48.10
46784;DHT22;32544;52.832;13.816;2023-04-16T05:04:44;23.40;48.10
46784;DHT22;32544;52.832;13.816;2023-04-16T05:05:44;23.40;48.10
46784;DHT22;32544;52.832;13.816;2023-04-16T05:06:45;23.40;48.10
46784;DHT22;32544;52.832;13.816;2023-04-16T05:07:45;23.40;48.10
46784;DHT22;32544;52.832;13.816;2023-04-16T05:08:46;23.40;48.10
46784;DHT22;32544;52.832;13.816;2023-04-16T05:09:47;23.40;48.10
46784;DHT22;32544;52.832;13.816;2023-04-16T05:10:47;23.40;48.10
46784;DHT22;32544;52.832;13.816;2023-04-16T05:11:48;23.40;48.10
46784;DHT22;32544;52.832;13.816;2023-04-16T05:12:48;23.40;48.10
46784;DHT22;32544;52.832;13.816;2023-04-16T05:13:49;23.40;48.10
46784;DHT22;32544;52.832;13.816;2023-04-16T05:14:50;23.40;48.10
46784;DHT22;32544;52.832;13.816;2023-04-16T05:15:50;23.40;48.10
46784;DHT22;32544;52.832;13.816;2023-04-16T05:16:51;23.40;48.70
46784;DHT22;32544;52.832;13.816;2023-04-16T05:17:51;23.50;48.20
46784;DHT22;32544;52.832;13.816;2023-04-16T05:18:52;23.40;48.10
46784;DHT22;32544;52.832;13.816;2023-04-16T05:19:55;23.40;48.10
46784;DHT22;32544;52.832;13.816;2023-04-16T05:20:55;23.40;48.10
46784;DHT22;32544;52.832;13.816;2023-04-16T05:21:56;23.40;48.10
46784;DHT22;32544;52.832;13.816;2023-04-16T05:22:57;23.40;48.10
46784;DHT22;32544;52.832;13.816;2023-04-16T05:23:57;23.40;48.10
46784;DHT22;32544;52.832;13.816;2023-04-16T05:24:58;23.40;48.10
46784;DHT22;32544;52.832;13.816;2023-04-16T05:25:58;23.40;48.10
46784;DHT22;32544;52.832;13.816;2023-04-16T05:26:59;23.40;48.10
46784;DHT22;32544;52.832;13.816;2023-04-16T05:28:00;23.40;48.10
46784;DHT22;32544;52.832;13.816;2023-04-16T05:29:01;23.40;48.10
46784;DHT22;32544;52.832;13.816;2023-04-16T05:30:02;23.40;48.10
46784;DHT22;32544;52.832;13.816;2023-04-16T05:31:02;23.40;48.10
46784;DHT22;32544;52.832;13.816;2023-04-16T05:32:03;23.40;48.10
46784;DHT22;32544;52.832;13.816;2023-04-16T05:33:03;23.40;48.10
46784;DHT22;32544;52.832;13.816;2023-04-16T05:34:04;23.40;48.10
46784;DHT22;32544;52.832;13.816;2023-04-16T05:35:05;23.40;48.10
46784;DHT22;32544;52.832;13.816;2023-04-16T05:36:05;23.40;48.10
46784;DHT22;32544;52.832;13.816;2023-04-16T05:37:06;23.40;48.10
46784;DHT22;32544;52.832;13.816;2023-04-16T05:38:06;23.40;48.10
46784;DHT22;32544;52.832;13.816;2023-04-16T05:39:07;23.40;48.10
46784;DHT22;32544;52.832;13.816;2023-04-16T05:40:08;23.40;48.10
46784;DHT22;32544;52.832;13.816;2023-04-16T05:41:08;23.40;48.10
46784;DHT22;32544;52.832;13.816;2023-04-16T05:42:09;23.40;48.70
46784;DHT22;32544;52.832;13.816;2023-04-16T05:43:10;23.40;48.10
46784;DHT22;32544;52.832;13.816;2023-04-16T05:44:10;23.40;48.10
46784;DHT22;32544;52.832;13.816;2023-04-16T05:45:11;23.40;48.10
46784;DHT22;32544;52.832;13.816;2023-04-16T05:46:11;23.40;48.10
46784;DHT22;32544;52.832;13.816;2023-04-16T05:47:12;23.40;48.10
46784;DHT22;32544;52.832;13.816;2023-04-16T05:48:13;23.40;48.10
46784;DHT22;32544;52.832;13.816;2023-04-16T05:49:13;23.40;48.70
46784;DHT22;32544;52.832;13.816;2023-04-16T05:50:14;23.40;48.10
46784;DHT22;32544;52.832;13.816;2023-04-16T05:51:15;23.40;48.10
46784;DHT22;32544;52.832;13.816;2023-04-16T05:52:16;23.40;48.10
46784;DHT22;32544;52.832;13.816;2023-04-16T05:53:16;23.40;48.10
46784;DHT22;32544;52.832;13.816;2023-04-16T05:54:18;23.40;48.10
46784;DHT22;32544;52.832;13.816;2023-04-16T05:55:18;23.40;48.10
46784;DHT22;32544;52.832;13.816;2023-04-16T05:56:19;23.40;48.10
46784;DHT22;32544;52.832;13.816;2023-04-16T05:57:21;23.40;48.10
46784;DHT22;32544;52.832;13.816;2023-04-16T05:58:21;23.40;48.10
46784;DHT22;32544;52.832;13.816;2023-04-16T05:59:22;23.40;48.10
46784;DHT22;32544;52.832;13.816;2023-04-16T06:00:22;23.40;48.10
46784;DHT22;32544;52.832;13.816;2023-04-16T06:01:23;23.40;48.10
46784;DHT22;32544;52.832;13.816;2023-04-16T06:02:24;23.40;48.10
46784;DHT22;32544;52.832;13.816;2023-04-16T06:03:25;23.40;48.10
46784;DHT22;32544;52.832;13.816;2023-04-16T06:04:26;23.40;48.10
46784;DHT22;32544;52.832;13.816;2023-04-16T06:05:26;23.40;48.10
46784;DHT22;32544;52.832;13.816;2023-04-16T06:06:27;23.40;48.10
46784;DHT22;32544;52.832;13.816;2023-04-16T06:07:27;23.40;48.10
46784;DHT22;32544;52.832;13.816;2023-04-16T06:08:28;23.40;48.10
46784;DHT22;32544;52.832;13.816;2023-04-16T06:09:29;23.40;48.10
46784;DHT22;32544;52.832;13.816;2023-04-16T06:10:29;23.40;48.10
46784;DHT22;32544;52.832;13.816;2023-04-16T06:11:30;23.40;48.10
46784;DHT22;32544;52.832;13.816;2023-04-16T06:12:31;23.40;48.10
46784;DHT22;32544;52.832;13.816;2023-04-16T06:13:31;23.40;48.10
46784;DHT22;32544;52.832;13.816;2023-04-16T06:14:32;23.40;48.10
46784;DHT22;32544;52.832;13.816;2023-04-16T06:15:33;23.40;48.10
46784;DHT22;32544;52.832;13.816;2023-04-16T06:16:33;23.40;48.10
46784;DHT22;32544;52.832;13.816;2023-04-16T06:17:34;23.40;48.10
46784;DHT22;32544;52.832;13.816;2023-04-16T06:18:35;23.40;48.10
46784;DHT22;32544;52.832;13.816;2023-04-16T06:19:35;23.40;48.10
46784;DHT22;32544;52.832;13.816;2023-04-16T06:20:36;23.40;48.10